Time;durP1;ratioP1;P1;durP2;ratioP2;P2;SDS_P1;SDS_P2;PMS_P1;PMS_P2;Temp;Humidity;BMP_temperature;BMP_pressure;BME280_temperature;BME280_humidity;BME280_pressure;Samples;Min_cycle;Max_cycle;Signal;HPM_P1;HPM_P2
2023/02/20 00:01:51;;;;;;;9.95;5.40;;;8.20;99.90;;;7.21;100.00;98439.34;5033272;28;20403;-82
2023/02/20 00:04:17;;;;;;;10.35;5.40;;;8.20;99.90;;;7.20;100.00;98429.00;5033383;28;20438;-82
2023/02/20 00:06:43;;;;;;;13.27;5.45;;;8.20;99.90;;;7.19;100.00;98438.72;5033517;28;20422;-83
2023/02/20 00:09:11;;;;;;;12.85;5.18;;;8.20;99.90;;;7.18;100.00;98433.66;5033242;28;20415;-82
2023/02/20 00:11:37;;;;;;;10.77;5.10;;;8.20;99.90;;;7.13;100.00;98431.66;5032758;28;20469;-82
2023/02/20 00:14:03;;;;;;;12.38;5.57;;;8.10;99.90;;;7.16;100.00;98433.06;5033301;28;20773;-82
2023/02/20 00:16:29;;;;;;;14.82;5.82;;;8.10;99.90;;;7.12;100.00;98435.28;5032977;28;20904;-82
2023/02/20 00:18:55;;;;;;;12.30;5.60;;;8.10;99.90;;;7.13;100.00;98428.22;5032880;28;20413;-82
2023/02/20 00:21:21;;;;;;;12.10;5.20;;;8.10;99.90;;;7.11;100.00;98423.13;5032771;28;20407;-82
2023/02/20 00:23:47;;;;;;;15.82;5.13;;;8.10;99.90;;;7.11;100.00;98420.50;5032911;28;20437;-83
2023/02/20 00:26:14;;;;;;;12.47;5.40;;;8.10;99.90;;;7.15;100.00;98418.25;5033109;28;20511;-82
2023/02/20 00:28:42;;;;;;;12.18;4.80;;;8.10;99.90;;;7.06;100.00;98416.88;5032882;28;20502;-82
2023/02/20 00:31:12;;;;;;;9.25;4.55;;;8.10;99.90;;;6.97;100.00;98411.81;5032454;28;20468;-82
2023/02/20 00:33:38;;;;;;;14.55;5.70;;;8.00;99.90;;;6.88;100.00;98422.72;5032573;28;20764;-82
2023/02/20 00:36:05;;;;;;;13.02;4.97;;;7.90;99.90;;;6.82;100.00;98420.91;5032697;28;20426;-82
2023/02/20 00:38:31;;;;;;;16.25;5.30;;;7.80;99.90;;;6.80;100.00;98426.38;5032720;28;20410;-82
2023/02/20 00:40:57;;;;;;;12.02;5.03;;;7.80;99.90;;;6.73;100.00;98430.00;5032596;28;20411;-82
2023/02/20 00:43:25;;;;;;;10.75;4.82;;;7.70;99.90;;;6.73;100.00;98443.16;5032917;28;20809;-82
2023/02/20 00:45:50;;;;;;;12.05;4.57;;;7.70;99.90;;;6.71;100.00;98456.50;5032715;28;20461;-82
2023/02/20 00:48:16;;;;;;;12.30;5.10;;;7.70;99.90;;;6.70;100.00;98457.50;5033558;28;20415;-82
2023/02/20 00:50:42;;;;;;;11.85;4.88;;;7.70;99.90;;;6.70;100.00;98461.97;5032553;28;20410;-83
2023/02/20 00:53:08;;;;;;;11.98;4.60;;;7.70;99.90;;;6.77;100.00;98465.41;5032118;28;20746;-82
2023/02/20 00:55:34;;;;;;;15.05;5.32;;;7.80;99.90;;;6.77;100.00;98454.88;5031016;28;20404;-83
2023/02/20 00:58:00;;;;;;;12.60;4.73;;;7.70;99.90;;;6.74;100.00;98450.03;5032445;28;20419;-82
2023/02/20 01:00:29;;;;;;;11.95;4.90;;;7.70;99.90;;;6.68;100.00;98454.28;5032355;28;20421;-82
2023/02/20 01:02:55;;;;;;;18.50;5.28;;;7.70;99.90;;;6.59;100.00;98450.22;5032022;28;20487;-82
2023/02/20 01:05:22;;;;;;;11.43;4.80;;;7.60;99.90;;;6.55;100.00;98449.78;5032221;28;20399;-82
2023/02/20 01:07:48;;;;;;;14.25;5.40;;;7.60;99.90;;;6.49;100.00;98450.59;5032301;28;20391;-82
2023/02/20 01:10:14;;;;;;;15.75;5.88;;;7.50;99.90;;;6.43;100.00;98454.03;5032085;28;20878;-82
2023/02/20 01:12:40;;;;;;;13.65;5.80;;;7.50;99.90;;;6.42;100.00;98455.03;5032034;28;20411;-82
2023/02/20 01:15:11;;;;;;;12.43;5.43;;;7.50;99.90;;;6.34;100.00;98457.84;5047262;28;20784;-82
2023/02/20 01:17:38;;;;;;;14.40;5.05;;;7.40;99.90;;;6.29;100.00;98465.50;5031969;28;20415;-83
2023/02/20 01:20:07;;;;;;;14.90;5.68;;;7.30;99.90;;;6.21;100.00;98457.78;5031954;28;20409;-82
2023/02/20 01:22:32;;;;;;;13.23;5.18;;;7.30;99.90;;;6.18;100.00;98456.34;5031656;28;20410;-82
2023/02/20 01:24:58;;;;;;;11.63;5.27;;;7.20;99.90;;;6.16;100.00;98452.31;5032028;28;20505;-82
2023/02/20 01:27:24;;;;;;;13.20;4.70;;;7.20;99.90;;;6.11;100.00;98437.13;5031790;28;20456;-82
2023/02/20 01:29:50;;;;;;;16.77;6.15;;;7.20;99.90;;;6.05;100.00;98440.53;5031662;28;20505;-83
2023/02/20 01:32:16;;;;;;;10.63;5.37;;;7.10;99.90;;;6.01;100.00;98446.41;5031649;28;20474;-83
2023/02/20 01:34:43;;;;;;;20.38;6.22;;;7.10;99.90;;;6.05;100.00;98445.81;5031792;28;20417;-83
2023/02/20 01:37:12;;;;;;;13.18;6.00;;;7.10;99.90;;;6.06;100.00;98444.00;5047093;28;20796;-82
2023/02/20 01:39:38;;;;;;;16.50;6.05;;;7.10;99.90;;;6.02;100.00;98437.47;5031673;28;20410;-82
2023/02/20 01:42:09;;;;;;;14.38;6.05;;;7.10;99.90;;;5.97;100.00;98432.00;5046656;28;20845;-82
2023/02/20 01:44:36;;;;;;;13.35;5.95;;;7.10;99.90;;;5.92;100.00;98429.16;5031848;28;20864;-83
2023/02/20 01:47:05;;;;;;;13.48;5.82;;;7.00;99.90;;;5.94;100.00;98422.69;5031619;28;20756;-82
2023/02/20 01:49:42;;;;;;;11.13;5.70;;;7.00;99.90;;;5.91;100.00;98425.72;5031550;28;20510;-82
2023/02/20 01:52:18;;;;;;;13.50;5.50;;;7.00;99.90;;;5.85;100.00;98426.50;5046382;28;20407;-82
2023/02/20 01:54:49;;;;;;;14.32;5.80;;;6.90;99.90;;;5.81;100.00;98423.44;5031008;28;20414;-82
2023/02/20 01:57:20;;;;;;;10.50;5.63;;;6.90;99.90;;;5.75;100.00;98416.31;5031530;28;20508;-82
2023/02/20 01:59:49;;;;;;;18.10;5.63;;;6.90;99.90;;;5.72;100.00;98418.53;5031417;28;20407;-83
2023/02/20 02:02:15;;;;;;;14.30;5.93;;;6.80;99.90;;;5.71;100.00;98420.34;5031004;28;20407;-83
2023/02/20 02:04:43;;;;;;;16.33;6.47;;;6.80;99.90;;;5.73;100.00;98420.16;5046605;28;20498;-83
2023/02/20 02:07:10;;;;;;;18.52;5.90;;;6.80;99.90;;;5.76;100.00;98420.59;5031321;28;20398;-83
2023/02/20 02:09:43;;;;;;;12.38;5.57;;;6.90;99.90;;;5.82;100.00;98425.06;5031184;28;20457;-83
2023/02/20 02:12:09;;;;;;;12.88;5.25;;;6.90;99.90;;;5.81;100.00;98419.97;5030876;28;20445;-83
2023/02/20 02:14:35;;;;;;;9.68;4.57;;;6.90;99.90;;;5.80;100.00;98411.28;5030998;28;20885;-83
2023/02/20 02:17:49;;;;;;;10.05;5.22;;;6.90;99.90;;;5.81;100.00;98414.72;5030947;28;20425;-83
2023/02/20 02:21:15;;;;;;;10.90;5.53;;;6.90;99.90;;;5.82;100.00;98419.78;5025778;28;20509;-83
2023/02/20 02:24:26;;;;;;;11.55;5.20;;;6.90;99.90;;;5.85;100.00;98413.34;5031007;28;20526;-83
2023/02/20 02:27:26;;;;;;;9.57;4.83;;;6.90;99.90;;;5.86;100.00;98406.28;5031161;28;20415;-83
2023/02/20 02:30:46;;;;;;;13.32;5.43;;;6.90;99.90;;;5.86;100.00;98408.91;5030644;28;20399;-82
2023/02/20 02:34:00;;;;;;;20.20;5.67;;;6.90;99.90;;;5.81;100.00;98405.03;5030730;28;20411;-84
2023/02/20 02:36:55;;;;;;;9.95;4.80;;;6.90;99.90;;;5.83;100.00;98412.72;5043502;28;20494;-84
2023/02/20 02:39:33;;;;;;;11.35;5.07;;;6.90;99.90;;;5.86;100.00;98407.09;5053652;28;20407;-83
2023/02/20 02:42:09;;;;;;;13.20;5.40;;;6.90;99.90;;;5.91;100.00;98417.84;5041308;28;20409;-83
2023/02/20 02:44:43;;;;;;;9.17;5.07;;;7.00;99.90;;;5.95;100.00;98413.00;5030781;28;20868;-83
2023/02/20 02:47:17;;;;;;;10.82;4.72;;;7.00;99.90;;;5.98;100.00;98415.25;5030460;28;20395;-83
2023/02/20 02:49:54;;;;;;;15.95;5.45;;;7.10;99.90;;;5.96;100.00;98415.44;5030417;28;20403;-83
2023/02/20 02:52:39;;;;;;;11.23;4.78;;;7.00;99.90;;;5.91;100.00;98412.59;5030267;28;20434;-83
2023/02/20 02:55:06;;;;;;;9.30;4.38;;;7.00;99.90;;;5.88;100.00;98404.28;5030406;28;20450;-83
2023/02/20 02:57:32;;;;;;;12.25;4.70;;;6.90;99.90;;;5.87;100.00;98392.91;5030268;28;20421;-83
2023/02/20 03:00:03;;;;;;;11.43;5.05;;;6.90;99.90;;;5.88;100.00;98396.41;5030407;28;20399;-83
2023/02/20 03:02:37;;;;;;;7.88;4.28;;;6.90;99.90;;;5.90;100.00;98397.81;5029991;28;20456;-84
2023/02/20 03:05:08;;;;;;;9.15;4.22;;;7.00;99.90;;;5.91;100.00;98396.00;5030180;28;20399;-83
2023/02/20 03:07:38;;;;;;;9.43;4.38;;;7.00;99.90;;;5.91;100.00;98401.28;5029789;28;20414;-84
2023/02/20 03:10:08;;;;;;;11.32;4.88;;;7.00;99.90;;;5.90;100.00;98402.28;5030144;28;20448;-83
2023/02/20 03:12:39;;;;;;;7.63;4.03;;;7.00;99.90;;;5.89;100.00;98398.03;5029950;28;20418;-84
2023/02/20 03:15:31;;;;;;;11.90;5.40;;;7.00;99.90;;;5.91;100.00;98394.19;5030220;28;20406;-84
2023/02/20 03:18:14;;;;;;;15.43;4.90;;;7.00;99.90;;;5.88;100.00;98393.75;5030245;28;20438;-84
2023/02/20 03:20:44;;;;;;;9.90;4.25;;;7.00;99.90;;;5.87;100.00;98398.19;5030104;28;20405;-84
2023/02/20 03:23:16;;;;;;;10.13;4.85;;;6.90;99.90;;;5.84;100.00;98396.78;5029884;28;20402;-84
2023/02/20 03:25:49;;;;;;;16.55;5.20;;;6.90;99.90;;;5.80;100.00;98392.91;5030238;28;20426;-84
2023/02/20 03:28:21;;;;;;;14.65;5.00;;;6.90;99.90;;;5.76;100.00;98394.31;5030069;28;20410;-84
2023/02/20 03:30:54;;;;;;;9.90;4.47;;;6.90;99.90;;;5.76;100.00;98396.94;5029796;28;20507;-84
2023/02/20 03:44:44;;;;;;;12.32;5.00;;;6.80;99.90;;;5.61;100.00;98405.94;5031559;28;20398;-84
2023/02/20 03:47:14;;;;;;;9.30;4.95;;;6.70;99.90;;;5.56;100.00;98401.28;5029849;28;20402;-84
2023/02/20 03:49:43;;;;;;;13.60;5.82;;;6.70;99.90;;;5.52;100.00;98393.97;5029824;28;20887;-84
2023/02/20 03:52:10;;;;;;;11.85;5.50;;;6.60;99.90;;;5.49;100.00;98391.75;5029648;28;20410;-83
2023/02/20 03:54:38;;;;;;;16.67;5.82;;;6.60;99.90;;;5.47;100.00;98401.63;5030071;28;21056;-83
2023/02/20 03:57:11;;;;;;;17.60;6.28;;;6.60;99.90;;;5.42;100.00;98396.94;5029821;28;20488;-84
2023/02/20 03:59:42;;;;;;;11.70;5.57;;;6.50;99.90;;;5.37;100.00;98401.97;5029712;28;20950;-84
2023/02/20 04:02:14;;;;;;;18.00;5.38;;;6.50;99.90;;;5.26;100.00;98395.44;5045030;28;20438;-84
2023/02/20 04:04:45;;;;;;;13.40;6.00;;;6.40;99.90;;;5.17;100.00;98393.97;5030073;28;20497;-84
2023/02/20 04:07:19;;;;;;;12.23;5.25;;;6.30;99.90;;;5.10;100.00;98387.06;5029924;28;20461;-84
2023/02/20 04:09:47;;;;;;;13.45;5.43;;;6.20;99.90;;;5.01;100.00;98389.00;5028554;28;20473;-84
2023/02/20 04:12:19;;;;;;;12.07;5.35;;;6.10;99.90;;;4.90;100.00;98374.59;5028141;28;20815;-83
2023/02/20 04:14:48;;;;;;;10.10;5.07;;;6.10;99.90;;;4.86;100.00;98377.81;5029865;28;20486;-84
2023/02/20 04:17:19;;;;;;;18.50;6.13;;;6.00;99.90;;;4.81;100.00;98370.47;5030645;28;20511;-83
2023/02/20 04:19:45;;;;;;;14.82;5.78;;;6.00;99.90;;;4.75;100.00;98366.00;5035848;28;20905;-82
2023/02/20 04:22:19;;;;;;;12.27;6.18;;;5.90;99.90;;;4.73;100.00;98367.22;5034412;28;20414;-85
2023/02/20 04:24:53;;;;;;;13.93;6.60;;;5.90;99.90;;;4.66;100.00;98367.94;5033421;28;20490;-84
2023/02/20 04:27:19;;;;;;;11.10;6.10;;;5.80;99.90;;;4.61;100.00;98362.47;5033199;28;20479;-84
2023/02/20 04:29:46;;;;;;;12.10;5.97;;;5.80;99.90;;;4.57;100.00;98370.91;5033333;28;20406;-84
2023/02/20 04:32:12;;;;;;;15.13;7.30;;;5.80;99.90;;;4.54;100.00;98372.09;5033033;28;20411;-84
2023/02/20 04:34:38;;;;;;;14.02;6.47;;;5.80;99.90;;;4.51;100.00;98371.66;5033024;28;20406;-85
2023/02/20 04:37:09;;;;;;;14.57;6.60;;;5.70;99.90;;;4.45;100.00;98364.53;5033215;28;20421;-84
2023/02/20 04:39:36;;;;;;;15.60;6.38;;;5.60;99.90;;;4.40;100.00;98367.72;5033424;28;20508;-84
2023/02/20 04:42:03;;;;;;;17.17;7.15;;;5.60;99.90;;;4.37;100.00;98375.13;5033145;28;20493;-85
2023/02/20 04:44:35;;;;;;;18.55;7.32;;;5.60;99.90;;;4.36;100.00;98363.06;5033549;28;20538;-85
2023/02/20 04:47:05;;;;;;;23.20;7.73;;;5.50;99.90;;;4.30;100.00;98364.59;5033928;28;20588;-85
2023/02/20 04:49:31;;;;;;;15.32;7.28;;;5.50;99.90;;;4.26;100.00;98368.59;5033359;28;20518;-84
2023/02/20 04:51:57;;;;;;;14.70;7.72;;;5.40;99.90;;;4.23;100.00;98368.97;5048501;28;20468;-84
2023/02/20 04:54:23;;;;;;;20.13;7.78;;;5.40;99.90;;;4.21;100.00;98360.50;5033574;28;20880;-84
2023/02/20 04:56:50;;;;;;;16.92;7.43;;;5.40;99.90;;;4.16;100.00;98363.66;5033621;28;20415;-85
2023/02/20 04:59:18;;;;;;;13.00;7.18;;;5.30;99.90;;;4.13;100.00;98381.56;5033207;28;20402;-85
2023/02/20 05:01:46;;;;;;;12.53;6.73;;;5.40;99.90;;;4.10;100.00;98379.31;5032625;28;20490;-85
2023/02/20 05:04:13;;;;;;;16.30;7.28;;;5.30;99.90;;;4.06;100.00;98384.09;5033936;28;20437;-85
2023/02/20 05:06:42;;;;;;;16.45;7.43;;;5.30;99.90;;;4.05;100.00;98387.75;5034069;28;20799;-85
2023/02/20 05:09:09;;;;;;;14.20;7.10;;;5.20;99.90;;;4.01;100.00;98381.22;5032857;28;20425;-85
2023/02/20 05:11:36;;;;;;;23.98;7.85;;;5.20;99.90;;;3.99;100.00;98375.34;5032605;28;20733;-85
2023/02/20 05:14:03;;;;;;;16.80;7.97;;;5.20;99.90;;;4.01;100.00;98375.19;5033739;28;20418;-86
2023/02/20 05:16:30;;;;;;;15.32;7.50;;;5.20;99.90;;;3.90;100.00;98373.88;5034310;28;20453;-85
2023/02/20 05:18:56;;;;;;;18.48;7.97;;;5.10;99.90;;;3.86;100.00;98373.41;5035096;28;20407;-85
2023/02/20 05:24:07;;;;;;;18.58;8.10;;;5.00;99.90;;;3.83;100.00;98376.38;5037625;28;20444;-85
2023/02/20 05:26:33;;;;;;;15.23;7.97;;;5.00;99.90;;;3.78;100.00;98372.69;5035791;28;20498;-86
2023/02/20 05:28:59;;;;;;;16.73;7.70;;;5.00;99.90;;;3.77;100.00;98366.66;5036181;28;20503;-85
2023/02/20 05:31:25;;;;;;;16.57;8.83;;;5.00;99.90;;;3.76;100.00;98375.50;5051438;22;20431;-73
2023/02/20 05:33:52;;;;;;;13.32;7.63;;;5.00;99.90;;;3.75;100.00;98384.38;5041791;28;20510;-73
2023/02/20 05:36:18;;;;;;;19.00;8.50;;;4.90;99.90;;;3.75;100.00;98373.91;5039823;28;20423;-72
2023/02/20 05:38:48;;;;;;;16.75;7.88;;;4.90;99.90;;;3.71;100.00;98372.63;5038934;28;20407;-73
2023/02/20 05:41:14;;;;;;;16.27;7.70;;;4.90;99.90;;;3.69;100.00;98373.78;5028442;28;20556;-73
2023/02/20 05:43:40;;;;;;;16.20;7.80;;;4.90;99.90;;;3.64;100.00;98371.72;5021120;28;20401;-73
2023/02/20 05:46:06;;;;;;;16.85;8.45;;;4.90;99.90;;;3.63;100.00;98370.09;5021847;28;20407;-73
2023/02/20 05:48:31;;;;;;;20.98;8.85;;;4.80;99.90;;;3.60;100.00;98372.28;5007068;28;20465;-73
2023/02/20 05:50:59;;;;;;;16.20;7.75;;;4.80;99.90;;;3.57;100.00;98365.59;5021662;28;20569;-73
2023/02/20 05:53:26;;;;;;;18.85;8.15;;;4.80;99.90;;;3.52;100.00;98373.19;5021486;28;20418;-73
2023/02/20 05:55:52;;;;;;;18.73;8.15;;;4.70;99.90;;;3.47;100.00;98368.50;5020869;28;20496;-74
2023/02/20 05:58:18;;;;;;;20.08;9.35;;;4.70;99.90;;;3.50;100.00;98369.94;5019599;28;20447;-73
2023/02/20 06:00:44;;;;;;;18.58;8.32;;;4.70;99.90;;;3.43;100.00;98371.66;5021522;28;21003;-73
2023/02/20 06:03:10;;;;;;;24.08;8.48;;;4.60;99.90;;;3.42;100.00;98370.03;5020609;28;20405;-74
2023/02/20 06:05:36;;;;;;;18.58;8.38;;;4.60;99.90;;;3.34;100.00;98370.94;5019878;28;20427;-77
2023/02/20 06:08:04;;;;;;;19.20;8.68;;;4.60;99.90;;;3.36;100.00;98368.16;5021712;28;20481;-75
2023/02/20 06:10:30;;;;;;;20.40;7.90;;;4.60;99.90;;;3.29;100.00;98378.53;5020448;28;20448;-77
2023/02/20 06:12:56;;;;;;;14.70;7.72;;;4.50;99.90;;;3.29;100.00;98375.09;5019555;28;20497;-76
2023/02/20 06:15:22;;;;;;;18.08;8.02;;;4.50;99.90;;;3.27;100.00;98377.06;5021517;28;20407;-75
2023/02/20 06:17:48;;;;;;;16.87;8.40;;;4.50;99.90;;;3.25;100.00;98371.19;5019889;28;20488;-75
2023/02/20 06:20:14;;;;;;;18.75;8.80;;;4.40;99.90;;;3.18;100.00;98381.56;5019962;28;20960;-75
2023/02/20 06:22:40;;;;;;;17.48;7.93;;;4.40;99.90;;;3.16;100.00;98375.69;5021386;28;20430;-76
2023/02/20 06:25:08;;;;;;;21.17;9.18;;;4.40;99.90;;;3.19;100.00;98377.16;5019917;28;20407;-75
2023/02/20 06:27:37;;;;;;;17.08;8.40;;;4.40;99.90;;;3.15;100.00;98375.91;5019946;28;20446;-75
2023/02/20 06:30:03;;;;;;;20.27;8.70;;;4.40;99.90;;;3.15;100.00;98370.69;5021062;28;20901;-75
2023/02/20 06:32:29;;;;;;;23.40;8.93;;;4.40;99.90;;;3.19;100.00;98380.59;5019777;28;20405;-75
2023/02/20 06:34:55;;;;;;;25.70;9.23;;;4.40;99.90;;;3.17;100.00;98384.38;5019586;28;20498;-73
2023/02/20 06:37:21;;;;;;;20.83;9.20;;;4.40;99.90;;;3.16;100.00;98377.53;5021048;28;20411;-73
2023/02/20 06:39:48;;;;;;;20.17;8.75;;;4.30;99.90;;;3.13;100.00;98372.66;5019696;28;20411;-74
2023/02/20 06:42:15;;;;;;;23.23;9.35;;;4.30;99.90;;;3.13;100.00;98377.88;5019700;28;20414;-77
2023/02/20 06:44:41;;;;;;;15.73;8.57;;;4.30;99.90;;;3.14;100.00;98382.94;5028692;28;20419;-73
2023/02/20 06:47:08;;;;;;;24.38;9.82;;;4.40;99.90;;;3.20;100.00;98391.88;5011686;28;20756;-76
2023/02/20 06:49:34;;;;;;;24.30;9.90;;;4.40;99.90;;;3.23;100.00;98402.00;5024865;28;20496;-76
2023/02/20 06:52:00;;;;;;;16.80;8.40;;;4.40;99.90;;;3.22;100.00;98395.94;5018988;28;20479;-76
2023/02/20 06:54:26;;;;;;;24.10;9.47;;;4.40;99.90;;;3.24;100.00;98399.16;5021065;28;20411;-76
2023/02/20 06:56:52;;;;;;;26.80;10.00;;;4.40;99.90;;;3.25;100.00;98397.38;5020159;28;20416;-76
2023/02/20 06:59:19;;;;;;;18.35;9.05;;;4.40;99.90;;;3.28;100.00;98404.88;5001680;28;20409;-80
2023/02/20 07:01:45;;;;;;;25.92;9.65;;;4.50;99.90;;;3.31;100.00;98400.06;5018920;28;20408;-77
2023/02/20 07:04:21;;;;;;;19.67;9.27;;;4.50;99.90;;;3.30;100.00;98408.94;5020271;28;20426;-74
2023/02/20 07:06:47;;;;;;;22.83;10.32;;;4.50;99.90;;;3.31;100.00;98404.50;5029944;28;20945;-75
2023/02/20 07:09:13;;;;;;;25.25;9.75;;;4.50;99.90;;;3.34;100.00;98404.97;5026448;28;20434;-75
2023/02/20 07:11:39;;;;;;;21.40;9.20;;;4.50;99.90;;;3.35;100.00;98417.06;5028015;28;20948;-75
2023/02/20 07:14:05;;;;;;;20.90;9.55;;;4.50;99.90;;;3.36;100.00;98416.06;5019040;28;20890;-75
2023/02/20 07:16:33;;;;;;;23.38;10.10;;;4.60;99.90;;;3.38;100.00;98408.81;5020213;28;20406;-75
2023/02/20 07:18:59;;;;;;;16.90;9.60;;;4.60;99.90;;;3.40;100.00;98416.50;5019745;28;20408;-75
2023/02/20 07:21:24;;;;;;;26.70;10.45;;;4.60;99.90;;;3.44;100.00;98410.75;5021905;28;20965;-75
2023/02/20 07:23:52;;;;;;;25.85;10.63;;;4.60;99.90;;;3.50;100.00;98419.69;5019627;28;20542;-77
2023/02/20 07:26:21;;;;;;;20.23;10.20;;;4.60;99.90;;;3.60;100.00;98422.03;5019246;28;20490;-78
2023/02/20 07:28:47;;;;;;;23.80;9.97;;;4.70;99.90;;;3.66;100.00;98422.13;5020308;28;20466;-78
2023/02/20 07:31:13;;;;;;;19.98;9.98;;;4.80;99.90;;;3.76;100.00;98416.59;5023325;28;20788;-80
2023/02/20 07:33:42;;;;;;;19.08;9.25;;;4.90;99.90;;;3.84;100.00;98413.84;5021456;28;20410;-80
2023/02/20 07:36:09;;;;;;;24.70;9.80;;;5.00;99.90;;;3.91;100.00;98417.38;5020822;28;20414;-74
2023/02/20 07:38:35;;;;;;;22.88;9.30;;;5.00;99.90;;;4.03;100.00;98417.72;5022111;28;20426;-73
2023/02/20 07:41:00;;;;;;;19.25;8.70;;;5.20;99.90;;;4.22;100.00;98417.13;5015863;28;20408;-74
2023/02/20 07:43:26;;;;;;;21.23;8.75;;;5.30;99.90;;;4.34;100.00;98420.91;5014533;28;20494;-74
2023/02/20 07:45:52;;;;;;;13.90;7.65;;;5.50;99.90;;;4.52;100.00;98417.84;5018916;28;20545;-73
2023/02/20 07:48:18;;;;;;;14.45;7.65;;;5.60;99.90;;;4.64;100.00;98416.34;5019557;28;20413;-73
2023/02/20 07:50:45;;;;;;;16.95;7.72;;;5.70;99.90;;;4.67;100.00;98415.97;5018760;28;20548;-74
2023/02/20 07:53:14;;;;;;;14.65;7.13;;;5.80;99.90;;;4.80;100.00;98407.41;5022666;28;20410;-74
2023/02/20 07:55:40;;;;;;;14.88;7.57;;;5.90;99.90;;;4.95;100.00;98416.03;5023100;28;20467;-74
2023/02/20 07:58:06;;;;;;;11.43;6.83;;;6.00;99.90;;;5.10;100.00;98414.13;5024198;28;20419;-74
2023/02/20 08:00:32;;;;;;;14.27;6.25;;;6.20;99.90;;;5.17;100.00;98406.28;5022734;28;20928;-74
2023/02/20 08:03:00;;;;;;;14.30;6.57;;;6.20;99.90;;;5.20;100.00;98403.25;5022532;28;20438;-74
2023/02/20 08:05:27;;;;;;;13.43;6.55;;;6.30;99.90;;;5.41;100.00;98403.22;5024159;28;20429;-72
2023/02/20 08:07:54;;;;;;;19.90;7.55;;;6.40;99.90;;;5.57;100.00;98399.44;5022713;28;20401;-73
2023/02/20 08:10:24;;;;;;;13.93;6.55;;;6.60;99.90;;;5.60;100.00;98394.63;5022229;28;20482;-73
2023/02/20 08:12:51;;;;;;;14.02;6.68;;;6.70;99.90;;;5.68;100.00;98406.78;5023572;28;20618;-73
2023/02/20 08:15:18;;;;;;;11.07;5.85;;;6.70;99.90;;;5.75;100.00;98400.56;5018033;28;20412;-77
2023/02/20 08:17:44;;;;;;;15.23;6.38;;;6.80;99.90;;;5.80;100.00;98399.97;5024249;28;20412;-77
2023/02/20 08:20:12;;;;;;;11.38;5.40;;;6.90;99.90;;;5.92;100.00;98387.13;5029026;28;20403;-76
2023/02/20 08:22:38;;;;;;;16.88;5.97;;;6.90;99.90;;;5.96;100.00;98381.28;5005517;28;20493;-76
2023/02/20 08:25:06;;;;;;;13.53;5.43;;;7.00;99.90;;;5.98;100.00;98386.34;5023893;28;20415;-76
2023/02/20 08:27:36;;;;;;;14.35;5.65;;;7.00;99.90;;;6.10;100.00;98384.75;5025241;28;20500;-77
2023/02/20 08:30:04;;;;;;;15.80;5.65;;;7.10;99.90;;;6.09;100.00;98383.94;4997278;28;20440;-76
2023/02/20 08:32:30;;;;;;;12.82;5.43;;;7.20;99.90;;;6.19;100.00;98375.69;5035114;28;20412;-76
2023/02/20 08:34:56;;;;;;;12.48;4.70;;;7.20;99.90;;;6.26;100.00;98373.88;5048122;28;20426;-76
2023/02/20 08:37:22;;;;;;;14.97;5.90;;;7.30;99.90;;;6.39;100.00;98379.16;5040304;28;20420;-76
2023/02/20 08:39:47;;;;;;;10.40;5.00;;;7.40;99.90;;;6.48;100.00;98369.25;5041109;28;20433;-76
2023/02/20 08:42:16;;;;;;;14.55;5.57;;;7.50;99.90;;;6.56;100.00;98369.06;5047344;28;20497;-76
2023/02/20 08:44:42;;;;;;;13.80;5.03;;;7.60;99.90;;;6.67;100.00;98372.94;5035568;28;20888;-76
2023/02/20 08:47:08;;;;;;;16.50;5.40;;;7.70;99.90;;;6.77;100.00;98373.31;5036698;28;20487;-76
2023/02/20 08:49:34;;;;;;;13.00;5.38;;;7.80;99.90;;;6.88;100.00;98372.72;5034028;28;20418;-76
2023/02/20 08:52:02;;;;;;;9.82;5.07;;;7.80;99.90;;;6.92;100.00;98377.38;5015988;28;20414;-75
2023/02/20 08:54:28;;;;;;;12.07;4.75;;;7.90;99.90;;;6.95;100.00;98376.16;5037596;28;20397;-76
2023/02/20 08:56:54;;;;;;;11.85;4.72;;;7.90;99.90;;;7.07;100.00;98377.16;5039975;28;20977;-76
2023/02/20 08:59:21;;;;;;;10.07;4.65;;;8.00;99.90;;;7.15;100.00;98378.75;5034078;28;20505;-76
2023/02/20 09:01:47;;;;;;;16.63;5.30;;;8.10;99.90;;;7.20;100.00;98381.63;5029150;28;20411;-75
2023/02/20 09:04:14;;;;;;;14.80;5.10;;;8.20;99.90;;;7.25;100.00;98374.72;5031634;28;20989;-74
2023/02/20 09:06:40;;;;;;;9.90;4.78;;;8.20;99.90;;;7.33;100.00;98366.59;5038821;28;20763;-75
2023/02/20 09:09:06;;;;;;;13.30;5.15;;;8.30;99.90;;;7.31;100.00;98367.81;5038546;28;20771;-76
2023/02/20 09:11:32;;;;;;;11.27;4.47;;;8.30;99.90;;;7.32;100.00;98362.34;5041835;28;20494;-76
2023/02/20 09:13:58;;;;;;;9.38;4.20;;;8.30;99.90;;;7.50;100.00;98358.25;5045473;28;20397;-76
2023/02/20 09:16:27;;;;;;;10.50;4.27;;;8.40;99.90;;;7.71;100.00;98353.50;5035464;28;20605;-76
2023/02/20 09:18:54;;;;;;;8.57;4.03;;;8.60;99.90;;;7.76;100.00;98358.97;5047414;28;20427;-76
2023/02/20 09:21:20;;;;;;;13.20;4.45;;;8.70;99.90;;;7.78;100.00;98343.75;5032036;28;20478;-76
2023/02/20 09:23:46;;;;;;;12.85;3.97;;;8.70;99.90;;;7.74;100.00;98353.06;5030189;28;20419;-76
2023/02/20 09:26:12;;;;;;;10.48;3.30;;;8.70;99.90;;;7.84;100.00;98347.38;5031508;28;20435;-76
2023/02/20 09:28:39;;;;;;;7.63;3.65;;;8.70;99.90;;;8.06;100.00;98339.97;5038179;28;20403;-76
2023/02/20 09:31:05;;;;;;;11.57;3.88;;;8.90;99.90;;;8.04;100.00;98350.72;5032719;28;20898;-76
2023/02/20 09:33:33;;;;;;;8.30;3.10;;;9.00;99.90;;;8.30;100.00;98339.22;5037888;28;20405;-76
2023/02/20 09:35:59;;;;;;;8.93;3.28;;;9.20;99.90;;;8.52;100.00;98326.50;5041621;28;20469;-76
2023/02/20 09:38:26;;;;;;;10.35;3.42;;;9.40;99.90;;;8.63;100.00;98330.28;5042974;28;20480;-77
2023/02/20 09:40:56;;;;;;;11.63;3.03;;;9.50;99.90;;;8.70;100.00;98329.22;5032946;28;20399;-76
2023/02/20 09:43:38;;;;;;;7.07;2.95;;;9.50;99.90;;;8.88;100.00;98323.16;5047703;28;20410;-76
2023/02/20 09:46:12;;;;;;;7.15;2.90;;;9.70;99.90;;;9.11;100.00;98320.69;5043962;28;20409;-76
2023/02/20 09:48:54;;;;;;;9.48;2.70;;;9.90;99.90;;;9.23;100.00;98318.16;5028776;28;20408;-76
2023/02/20 09:51:24;;;;;;;7.20;2.78;;;10.00;99.90;;;9.50;100.00;98327.41;5032543;28;20518;-76
2023/02/20 09:54:00;;;;;;;8.70;2.92;;;10.30;99.90;;;9.65;100.00;98327.84;5045936;28;20446;-77
2023/02/20 09:56:30;;;;;;;9.47;3.07;;;10.50;99.90;;;9.96;100.00;98332.13;5042026;28;20898;-77
2023/02/20 09:59:03;;;;;;;10.48;3.20;;;10.70;99.90;;;10.26;100.00;98331.34;5031849;28;20427;-76
2023/02/20 10:01:30;;;;;;;13.15;3.10;;;11.00;99.90;;;10.39;100.00;98336.44;5029750;28;20422;-75
2023/02/20 10:04:02;;;;;;;6.77;2.50;;;11.30;99.90;;;10.65;100.00;98328.09;5034777;28;20438;-76
2023/02/20 10:06:31;;;;;;;5.72;2.67;;;11.50;99.90;;;10.80;100.00;98323.16;5014957;28;20441;-76
2023/02/20 10:08:58;;;;;;;7.97;2.40;;;11.70;99.90;;;10.73;100.00;98316.38;5036069;28;20429;-76
2023/02/20 10:11:43;;;;;;;11.25;2.90;;;11.70;99.90;;;10.61;100.00;98313.69;5047022;28;20401;-76
2023/02/20 10:14:31;;;;;;;6.00;2.38;;;11.60;99.90;;;10.62;100.00;98317.16;5030714;28;20421;-75
2023/02/20 10:17:11;;;;;;;5.47;2.60;;;11.50;99.90;;;10.42;100.00;98298.94;5030894;28;20462;-75
2023/02/20 10:19:47;;;;;;;9.67;3.23;;;11.40;99.90;;;10.55;100.00;98306.66;5030830;28;20406;-75
2023/02/20 10:22:21;;;;;;;7.47;2.60;;;11.40;99.90;;;10.86;100.00;98302.91;5030599;28;20402;-75
2023/02/20 10:25:07;;;;;;;9.75;2.70;;;11.60;99.90;;;11.38;100.00;98297.66;5030920;28;20460;-76
2023/02/20 10:27:50;;;;;;;7.03;2.30;;;12.10;99.90;;;11.57;100.00;98297.31;5013120;28;20411;-75
2023/02/20 10:30:24;;;;;;;7.72;2.60;;;12.40;99.90;;;11.74;100.00;98304.50;5028133;28;20503;-75
2023/02/20 10:32:58;;;;;;;6.55;2.60;;;12.60;99.90;;;12.40;100.00;98301.25;5029139;28;20399;-75
2023/02/20 10:35:36;;;;;;;8.27;2.40;;;13.30;99.90;;;13.48;100.00;98311.38;5030601;28;20409;-75
2023/02/20 10:38:08;;;;;;;6.32;2.38;;;14.30;99.90;;;14.16;100.00;98295.91;5030617;28;20415;-75
2023/02/20 10:40:40;;;;;;;7.80;2.40;;;15.20;97.80;;;15.09;99.97;98297.22;5030529;28;20439;-74
2023/02/20 10:43:15;;;;;;;5.97;2.30;;;16.10;96.00;;;15.82;100.00;98295.44;5029716;28;20490;-72
2023/02/20 10:45:50;;;;;;;5.22;1.80;;;16.90;97.90;;;16.85;100.00;98290.78;5027668;28;20487;-73